Date,TemperatureHighF,TemperatureAvgF,TemperatureLowF,DewpointHighF,DewpointAvgF,DewpointLowF,HumidityHigh,HumidityAvg,HumidityLow,PressureMaxIn,PressureMinIn,WindSpeedMaxMPH,WindSpeedAvgMPH,GustSpeedMaxMPH,PrecipitationSumIn
2014-1-1,10,8,5,6,4,1,89,84,80,0.00,40.00,14,9,18,0.15
2014-1-2,7,3,-5,1,-2,-9,83,77,68,0.00,40.00,14,7,17,0.00
2014-1-3,32,13,-7,23,7,-10,86,75,64,0.00,40.00,24,13,37,0.00
2014-1-8,14,8,4,3,2,0,83,73,62,0.00,40.00,7,4,11,0.00
2014-1-9,22,11,2,20,6,-3,93,81,73,0.00,40.00,12,7,17,0.00
2014-1-10,34,30,22,33,30,21,97,97,95,0.00,40.00,9,6,14,0.00
2014-1-11,34,28,24,31,24,-100,97,88,71,0.00,40.00,18,10,27,0.00
2014-1-12,48,39,26,33,29,25,95,68,47,0.00,40.00,20,10,30,0.00
2014-1-13,45,37,32,35,28,21,88,71,50,0.00,40.00,14,9,22,0.00
2014-1-14,40,28,17,36,20,7,91,71,56,0.00,40.00,27,18,42,0.28
2014-1-15,30,20,14,17,9,6,75,63,45,0.00,40.00,19,11,31,0.00
2014-1-16,38,28,8,30,19,1,95,69,52,0.00,40.00,26,15,42,5.12
2014-1-17,22,13,4,12,5,-1,78,72,63,0.00,40.00,17,10,22,0.00
2014-1-18,37,23,12,35,16,-100,93,79,61,0.00,40.00,25,12,35,0.44
2014-1-19,53,36,15,30,24,13,91,66,38,0.00,40.00,16,11,22,0.00
2014-1-20,44,30,8,33,26,4,94,84,59,0.00,40.00,26,11,37,0.52
2014-1-21,12,4,-5,7,-2,-10,82,73,64,0.00,40.00,23,8,37,0.01
2014-1-22,19,12,-4,13,5,-10,81,71,62,0.00,40.00,20,12,31,0.01
2014-1-23,9,0,-7,-2,-7,-13,75,69,60,0.00,40.00,15,10,24,0.00
2014-1-25,40,24,15,36,7,-100,91,52,31,0.00,40.00,25,13,40,0.11
2014-1-26,47,30,4,33,18,-8,79,61,45,0.00,40.00,29,18,45,0.06
2014-1-27,6,1,-3,-5,-9,-12,69,61,51,0.00,40.00,21,11,34,0.00
2014-1-28,16,5,-4,0,-5,-10,78,61,43,0.00,40.00,16,7,22,0.00
2014-1-29,38,21,3,14,5,-5,69,52,32,0.00,40.00,21,12,29,0.00
2014-1-30,43,28,9,26,15,2,73,57,41,0.00,40.00,32,17,40,0.03
2014-1-31,20,12,7,6,3,0,74,65,53,0.00,40.00,14,6,22,0.00
2014-2-1,27,16,11,21,11,-100,94,85,70,0.00,40.00,12,6,17,0.13
2014-2-2,20,8,-2,8,2,-5,89,76,55,0.00,40.00,9,5,16,0.00
2014-2-3,29,17,2,15,8,-1,89,70,53,0.00,40.00,12,7,16,0.00
2014-2-4,21,17,7,19,16,6,97,93,67,0.00,40.00,17,7,26,0.38
2014-2-5,8,4,-3,5,-1,-9,92,80,68,0.00,40.00,21,12,29,0.03
2014-2-6,10,0,-9,0,-6,-12,86,74,60,0.00,40.00,15,8,22,0.00
2014-2-7,18,8,-5,4,-1,-8,87,67,49,0.00,40.00,17,7,20,0.00
2014-2-8,23,16,11,18,12,4,94,84,72,0.00,40.00,9,6,12,0.09
2014-2-9,15,6,-2,12,1,-6,93,80,67,0.00,40.00,14,8,19,0.00
2014-2-10,7,-1,-11,-3,-7,-14,87,75,62,0.00,40.00,9,5,13,0.00
2014-2-11,17,5,-8,4,-2,-11,87,72,54,0.00,40.00,16,7,20,0.00
2014-2-12,27,18,12,20,11,1,90,75,59,0.00,40.00,14,7,20,0.06
2014-2-13,45,29,18,32,22,10,92,76,59,0.00,40.00,20,12,29,0.00
2014-2-14,18,13,6,12,8,2,92,80,69,0.00,40.00,15,9,22,0.28
2014-2-15,35,17,4,31,13,1,95,84,65,0.00,40.00,15,7,22,0.05
2014-2-16,28,23,19,20,18,16,92,81,63,0.00,40.00,16,10,26,0.00
2014-2-17,45,33,24,35,26,20,97,78,50,0.00,40.00,22,11,34,0.12
2014-2-18,54,43,32,34,29,24,83,58,42,0.00,40.00,19,10,27,0.00
2014-2-19,50,39,30,36,31,28,96,76,45,0.00,40.00,17,8,24,0.14
2014-2-20,38,34,25,37,33,23,96,95,89,0.00,40.00,29,15,40,0.77
2014-2-21,38,28,20,24,18,11,93,66,45,0.00,40.00,27,12,37,0.00
2014-2-22,29,25,20,25,14,-100,92,67,45,0.00,40.00,10,5,13,0.00
2014-2-23,26,20,15,15,11,9,81,69,49,0.00,40.00,12,7,17,0.00
2014-2-24,22,18,13,15,12,10,94,78,60,0.00,40.00,8,4,14,0.27
2014-2-25,13,8,2,12,2,-6,94,77,59,0.00,40.00,16,10,26,0.00
2014-2-26,26,12,-3,15,4,-7,85,68,57,0.00,40.00,26,12,34,0.00
2014-2-27,15,3,-3,8,-7,-12,74,60,51,0.00,40.00,17,9,31,0.00
2014-2-28,42,20,1,22,12,-5,93,71,42,0.00,40.00,17,12,27,0.00
2014-3-1,20,6,-1,18,1,-100,92,84,82,0.00,40.00,19,13,27,0.30
2014-3-2,0,-4,-8,-5,-11,-15,82,69,58,0.00,40.00,19,12,27,0.00
2014-3-3,20,6,-9,4,-4,-13,84,64,47,0.00,40.00,13,7,19,0.00
2014-3-4,33,21,9,18,10,0,79,62,41,0.00,40.00,12,7,17,0.00
2014-3-5,26,23,20,22,18,15,91,84,79,0.00,40.00,14,10,21,0.00
2014-3-6,37,28,19,30,24,18,96,86,70,0.00,40.00,14,10,21,0.00
2014-3-7,44,35,26,37,31,24,94,86,75,0.00,40.00,17,12,24,0.00
2014-3-8,33,27,23,26,21,-100,95,84,72,0.00,40.00,17,8,24,0.00
2014-3-9,56,38,21,37,29,20,96,72,46,0.00,40.00,21,11,31,0.00
2014-3-10,66,52,41,47,40,34,83,63,44,0.00,40.00,13,7,22,0.00
2014-3-11,45,41,36,41,37,31,94,87,74,0.00,40.00,24,12,36,0.00
2014-3-12,36,32,27,31,24,20,88,74,56,0.00,40.00,21,11,31,0.00
2014-3-13,63,48,27,38,32,25,93,59,35,0.00,40.00,17,10,24,0.00
2014-3-14,53,48,38,37,33,27,81,57,39,0.00,40.00,24,13,30,0.00
2014-3-15,49,37,29,35,28,-100,98,76,46,0.00,40.00,17,10,26,0.30
2014-3-16,33,27,20,28,18,13,98,68,47,0.00,40.00,13,7,20,0.00
2014-3-17,46,32,20,25,18,-100,86,62,41,0.00,40.00,20,13,27,0.00
2014-3-18,51,42,35,41,33,24,95,72,56,0.00,40.00,14,9,20,0.10
2014-3-21,59,40,31,37,30,-100,94,72,40,0.00,40.00,26,12,36,0.00
2014-3-22,31,25,20,27,15,-100,86,68,53,0.00,40.00,19,13,31,0.00
2014-3-23,35,25,16,16,13,11,80,62,42,0.00,40.00,14,7,21,0.00
2014-3-24,37,30,24,29,24,16,96,79,53,0.00,40.00,12,8,20,0.06
2014-3-25,33,26,21,23,13,7,85,60,38,0.00,40.00,26,9,34,0.00
2014-3-26,54,38,19,41,20,12,86,53,30,0.00,40.00,27,15,37,0.00
2014-3-27,54,44,36,53,42,35,96,95,88,0.00,40.00,23,15,39,1.57
2014-3-28,37,35,33,34,31,30,95,86,76,0.00,40.00,21,7,28,0.00
2014-3-29,54,39,29,31,26,-100,94,64,33,0.00,40.00,9,6,12,0.00
2014-3-30,72,53,36,35,33,30,86,52,26,0.00,40.00,21,13,31,0.00
2014-3-31,75,55,30,51,38,20,90,55,35,0.00,40.00,28,19,39,0.31
2014-4-1,44,33,22,27,19,-100,74,60,50,0.00,40.00,28,14,41,0.00
2014-4-2,49,41,31,39,31,26,95,71,49,0.00,40.00,21,10,32,0.00
2014-4-3,45,42,37,44,41,36,96,95,82,0.00,40.00,18,10,27,0.14
2014-4-4,40,36,30,38,30,27,96,80,60,0.00,40.00,22,14,34,0.51
2014-4-6,59,50,40,45,38,26,76,62,44,0.00,40.00,12,6,17,0.14
2014-4-7,63,51,41,45,40,36,85,66,40,0.00,40.00,15,6,23,0.00
2014-4-8,56,47,39,41,34,28,92,63,35,0.00,40.00,21,11,27,0.00
2014-4-9,74,54,34,36,33,30,87,51,23,0.00,40.00,23,11,30,0.00
2014-4-10,66,59,51,42,34,27,69,41,25,0.00,40.00,19,10,29,0.00
2014-4-11,76,56,41,39,32,28,60,43,24,0.00,40.00,16,7,24,0.00
2014-4-12,85,70,58,64,51,-100,92,54,39,0.00,40.00,29,12,40,0.38
2014-4-13,60,48,36,58,47,35,95,95,94,0.00,40.00,29,14,39,6.43
2014-4-14,39,33,31,34,25,18,95,71,47,0.00,40.00,26,17,39,2.25
2014-4-15,45,34,26,26,20,17,80,58,35,0.00,40.00,12,6,16,0.00
2014-4-16,63,50,37,42,32,26,88,53,33,0.00,40.00,30,17,41,0.00
2014-4-17,54,41,34,40,32,30,92,72,40,0.00,40.00,25,9,32,0.00
2014-4-18,65,48,31,38,34,30,94,63,31,0.00,40.00,12,7,19,0.00
2014-4-19,77,59,44,48,39,-100,68,50,34,0.00,40.00,20,12,29,0.00
2014-4-20,83,70,56,58,53,47,74,56,42,0.00,40.00,21,11,27,0.00
2014-4-21,72,64,53,62,53,37,92,69,28,0.00,40.00,21,9,30,0.08
2014-4-22,66,53,40,38,36,35,81,54,33,0.00,40.00,16,8,22,0.00
2014-4-23,54,48,45,45,40,35,95,73,52,0.00,40.00,24,16,34,1.20
2014-4-24,55,50,46,54,48,42,96,90,75,0.00,40.00,21,10,28,1.06
2014-4-25,78,60,42,48,40,33,95,57,21,0.00,40.00,16,6,20,0.00
2014-4-26,74,61,51,51,42,-100,65,53,44,0.00,40.00,22,15,31,0.00
2014-4-27,64,53,44,57,47,37,94,82,59,0.00,40.00,31,18,40,3.08
2014-4-28,60,57,54,59,55,47,95,93,79,0.00,40.00,21,12,31,3.04
2014-5-13,57,54,50,40,38,36,65,56,46,0.00,40.00,12,6,19,0.00
2014-5-14,62,52,42,46,40,36,92,66,42,0.00,40.00,6,2,9,0.06
2014-5-15,49,45,40,47,39,34,94,80,67,0.00,40.00,17,9,27,0.74
2014-5-22,76,62,55,54,47,-100,87,63,36,0.00,40.00,7,4,24,0.00
2014-5-23,81,68,54,54,49,46,80,54,31,0.00,40.00,7,4,12,0.00
2014-5-24,81,67,58,58,50,-100,78,59,39,0.00,40.00,12,8,18,0.00
2014-5-25,80,68,63,71,64,58,94,88,72,0.00,40.00,12,7,21,0.10
2014-5-26,81,71,64,70,66,62,94,87,66,0.00,40.00,10,5,21,0.00
2014-5-27,82,72,64,68,64,61,94,77,54,0.00,40.00,11,4,15,0.01
2014-5-28,80,70,64,68,64,62,94,82,54,0.00,40.00,11,5,15,0.00
2014-5-29,86,75,62,69,65,59,90,72,53,0.00,40.00,13,6,17,0.01
2014-5-30,86,77,68,72,68,63,93,77,47,0.00,40.00,13,6,21,0.10
2014-5-31,86,72,70,73,64,-100,93,82,54,0.00,40.00,14,7,24,0.38
2014-6-1,85,75,68,72,68,65,94,81,56,0.00,40.00,20,10,27,0.21
2014-6-2,84,75,63,66,61,56,94,64,41,0.00,40.00,17,11,24,0.01
2014-6-3,82,69,62,65,60,56,94,76,48,0.00,40.00,9,4,15,1.31
2014-6-4,79,70,64,68,64,62,94,82,62,0.00,40.00,24,8,29,0.79
2014-6-5,76,67,60,64,61,58,94,82,64,0.00,40.00,17,7,22,0.04
2014-6-6,87,73,60,69,63,59,94,74,42,0.00,40.00,6,3,12,0.00
2014-6-8,73,73,73,59,59,59,61,61,61,0.00,40.00,1,1,7,0.00
2014-6-9,78,73,67,60,57,54,69,57,52,0.00,40.00,9,7,17,0.00
2014-6-10,77,67,61,64,56,51,86,67,55,0.00,40.00,11,6,18,0.00
2014-6-11,83,69,58,61,57,56,92,70,41,0.00,40.00,7,4,11,0.03
2014-6-12,74,68,61,64,54,42,85,61,40,0.00,40.00,19,10,24,0.00
2014-6-13,78,65,52,51,47,42,82,55,34,0.00,40.00,9,5,14,0.00
2014-6-14,70,63,56,57,54,52,88,74,63,0.00,40.00,17,12,23,0.00
2014-6-16,88,79,66,76,71,62,94,76,62,0.00,40.00,21,13,34,0.00
2014-6-17,85,74,62,76,68,60,96,83,65,0.00,40.00,19,9,24,0.10
2014-6-18,88,80,69,79,74,67,94,83,71,0.00,40.00,12,9,20,0.00
2014-6-19,79,73,66,75,70,64,95,91,84,0.00,40.00,11,6,17,0.00
2014-6-20,91,77,65,65,62,55,95,66,29,0.00,40.00,10,5,17,0.01
2014-6-21,87,71,66,68,59,-100,93,73,48,0.00,40.00,12,5,23,0.25
2014-6-22,79,71,69,69,68,66,92,87,66,0.00,40.00,7,4,13,0.04
2014-7-15,72,62,54,52,50,48,90,67,42,0.00,40.00,11,7,21,0.00
2014-7-16,78,69,57,56,52,49,93,57,39,0.00,40.00,6,3,9,0.00
2014-7-17,79,68,56,60,55,53,94,65,42,0.00,40.00,6,2,7,0.00
2014-7-18,79,69,60,61,58,57,91,70,48,0.00,40.00,11,6,14,0.00
2014-7-19,81,71,64,64,62,59,91,73,51,0.00,40.00,11,7,18,0.00
2014-7-20,84,72,63,67,64,62,94,77,56,0.00,40.00,14,8,24,0.00
2014-7-21,90,80,69,78,72,67,91,79,66,0.00,40.00,17,10,24,0.00
2014-7-22,89,82,73,79,76,68,92,82,63,0.00,40.00,11,7,22,0.01
2014-8-2,86,75,64,65,62,60,94,68,42,0.00,40.00,9,4,12,0.00
2014-8-3,88,76,66,68,65,63,93,69,46,0.00,40.00,7,5,13,0.00
2014-8-4,86,76,66,68,67,65,94,76,53,0.00,40.00,7,4,12,0.01
2014-8-5,81,72,64,70,66,62,95,84,61,0.00,40.00,5,2,9,0.00
2014-8-6,70,68,66,68,66,65,95,94,93,0.00,40.00,8,5,11,0.80
2014-8-8,79,76,70,67,66,65,85,71,63,0.00,40.00,7,5,14,0.00
2014-8-9,80,72,69,67,65,62,89,78,59,0.00,40.00,9,5,16,0.00
2014-8-10,78,78,77,66,66,66,67,66,66,0.00,40.00,4,3,6,0.00
2014-8-11,67,67,67,66,66,66,94,94,94,0.00,40.00,5,5,7,0.00
2014-8-13,82,79,72,58,57,54,61,46,39,0.00,40.00,6,3,12,0.00
2014-8-14,84,79,72,68,63,61,85,58,48,0.00,40.00,7,4,12,0.00
2014-8-15,71,69,67,69,67,65,95,93,88,0.00,40.00,12,5,19,0.36
2014-8-16,80,70,67,70,65,65,95,84,69,0.00,40.00,7,4,13,0.05
2014-8-17,86,76,67,72,69,66,95,78,57,0.00,40.00,6,4,9,0.00
2014-8-18,87,75,67,73,69,66,94,81,52,0.00,40.00,12,7,16,0.00
2014-8-19,86,77,69,72,66,62,95,70,46,0.00,40.00,10,5,15,0.00
2014-8-20,70,69,68,67,66,65,93,90,87,0.00,40.00,16,4,21,0.00
2014-8-23,77,76,76,75,75,74,94,94,94,0.00,40.00,5,4,10,0.00
2014-8-28,69,69,69,67,67,67,94,94,94,0.00,40.00,16,16,21,1.43
2014-8-29,69,69,69,67,67,67,94,94,94,0.00,40.00,16,16,21,0.00
2014-8-30,68,68,68,66,66,66,93,93,93,0.00,40.00,7,7,10,0.00
2014-9-11,55,52,48,48,45,44,88,78,65,0.00,40.00,14,7,21,0.03
2014-9-12,54,48,44,45,43,40,95,83,62,0.00,40.00,12,5,20,0.61
2014-9-13,63,49,38,49,38,35,96,70,37,0.00,40.00,10,4,17,0.00
2014-9-14,71,59,47,55,47,43,88,68,43,0.00,40.00,11,6,16,0.00
2014-9-15,61,58,49,59,50,44,94,78,56,0.00,40.00,15,6,26,0.00
2014-9-16,68,55,41,54,45,40,96,74,41,0.00,40.00,9,3,13,0.00
2014-9-17,72,59,52,58,53,50,92,82,58,0.00,40.00,7,5,9,0.00
2014-9-26,83,76,66,62,59,55,87,59,42,0.00,40.00,13,8,18,0.01
2014-9-27,84,69,62,65,60,59,95,74,46,0.00,40.00,12,5,17,0.81
2014-9-28,83,70,59,64,60,56,95,73,42,0.00,40.00,6,3,12,0.01
2014-9-29,83,70,59,62,59,57,95,73,43,0.00,40.00,9,4,13,0.00
2014-9-30,69,62,56,59,57,55,95,84,63,0.00,40.00,14,9,22,0.04
2014-10-1,71,63,56,64,60,55,96,88,75,0.00,40.00,15,7,20,0.87
2014-10-2,67,63,58,65,62,54,95,94,88,0.00,40.00,14,5,24,0.04
2014-10-8,71,57,42,49,40,34,90,57,27,0.00,40.00,9,4,15,0.04
2014-10-9,66,55,49,50,42,32,95,66,35,0.00,40.00,8,4,13,0.40
2014-10-10,56,48,39,38,34,31,85,59,40,0.00,40.00,6,4,11,0.00
2014-10-11,62,47,36,41,36,33,91,66,36,0.00,40.00,7,4,11,0.00
2014-10-12,57,48,40,51,44,38,95,88,68,0.00,40.00,12,7,16,0.00
2014-10-13,54,53,51,53,52,50,95,95,94,0.00,40.00,21,8,28,5.40
2014-10-14,61,54,50,51,44,37,95,72,46,0.00,40.00,24,16,35,1.47
2014-10-15,69,56,46,37,35,33,63,47,26,0.00,40.00,17,9,23,0.00
2014-10-16,75,56,42,47,41,36,90,61,35,0.00,40.00,14,6,21,0.00
2014-10-17,60,55,50,45,42,39,76,62,53,0.00,40.00,19,12,35,0.00
2014-10-18,58,47,40,42,39,38,94,73,47,0.00,40.00,12,5,21,0.00
2014-10-19,57,44,40,45,41,38,96,88,63,0.00,40.00,12,8,18,0.00